CheckWX is a tool to help pilots better visualize weather data.  It is not intended as a substitute for an official pre-flight weather briefing.

18:30:24 UTC

KPWA METAR
Wiley Post Airport
Oklahoma City, Oklahoma, USA
Current

37 mins ago

KPWA 171753Z 35015KT 10SM CLR 05/M04 A3001 RMK AO2 SLP170 T00501039 10050 21033 53008
Observed
Feb-17 @ 17:53 UTC
Wind
  • 350° at 15 KTS
Visibility
10 SM
Flight Rules
VFR
Cloud Levels
  • Clear skies
Temperature
C / 41°F
Dewpoint
-4°C / 25°F
Humidity
53%
Altimeter
30.01" Hg
Pressure
1017 hPa
Previous

2 hours ago

KPWA 171653Z 34011KT 10SM CLR 04/M04 A3000 RMK AO2 SLP165 T00391039
Observed
Feb-17 @ 16:53 UTC
Wind
  • 340° at 11 KTS
Visibility
10 SM
Flight Rules
VFR
Cloud Levels
  • Clear skies
Temperature
C / 39°F
Dewpoint
-4°C / 25°F
Humidity
56%
Altimeter
30" Hg
Pressure
1016.5 hPa
Previous

3 hours ago

KPWA 171553Z 33010KT 10SM CLR 02/M04 A2999 RMK AO2 SLP164 T00171039
Observed
Feb-17 @ 15:53 UTC
Wind
  • 330° at 10 KTS
Visibility
10 SM
Flight Rules
VFR
Cloud Levels
  • Clear skies
Temperature
C / 36°F
Dewpoint
-4°C / 25°F
Humidity
65%
Altimeter
29.99" Hg
Pressure
1016.4 hPa